createdAt,value
2022-12-04T00:00:27.400Z,0.10
2022-12-04T00:02:54.336Z,0.10
2022-12-04T00:05:21.280Z,0.10
2022-12-04T00:07:48.522Z,0.10
2022-12-04T00:10:15.542Z,0.10
2022-12-04T00:12:42.360Z,0.10
2022-12-04T00:15:25.158Z,0.10
2022-12-04T00:17:52.798Z,0.10
2022-12-04T00:20:20.114Z,0.10
2022-12-04T00:22:47.031Z,0.10
2022-12-04T00:25:14.028Z,0.10
2022-12-04T00:27:43.831Z,0.20
2022-12-04T00:30:11.236Z,0.20
2022-12-04T00:32:38.007Z,0.20
2022-12-04T00:35:05.159Z,0.20
2022-12-04T00:37:33.440Z,0.20
2022-12-04T00:40:00.282Z,0.10
2022-12-04T00:42:27.081Z,0.10
2022-12-04T00:44:54.043Z,0.20
2022-12-04T00:47:20.916Z,0.20
2022-12-04T00:49:47.753Z,0.10
2022-12-04T00:52:14.553Z,0.10
2022-12-04T00:54:41.448Z,0.20
2022-12-04T00:57:08.285Z,0.20
2022-12-04T00:59:35.113Z,0.20
2022-12-04T01:02:01.868Z,0.20
2022-12-04T01:04:28.726Z,0.20
2022-12-04T01:06:58.067Z,0.20
2022-12-04T01:09:28.486Z,0.20
2022-12-04T01:11:55.272Z,0.20
2022-12-04T01:14:22.082Z,0.20
2022-12-04T01:16:49.037Z,0.20
2022-12-04T01:19:15.907Z,0.20
2022-12-04T01:21:42.874Z,0.30
2022-12-04T01:24:09.764Z,0.20
2022-12-04T01:26:36.561Z,0.20
2022-12-04T01:29:04.078Z,0.30
2022-12-04T01:31:31.687Z,0.30
2022-12-04T01:33:58.809Z,0.30
2022-12-04T01:36:27.813Z,0.30
2022-12-04T01:38:55.911Z,0.30
2022-12-04T01:41:26.492Z,0.30
2022-12-04T01:44:20.437Z,0.30
2022-12-04T01:46:51.841Z,0.30
2022-12-04T01:49:25.699Z,0.30
2022-12-04T01:52:16.299Z,0.30
2022-12-04T01:54:47.559Z,0.30
2022-12-04T01:57:23.407Z,0.30
2022-12-04T01:59:58.099Z,0.30
2022-12-04T02:02:39.646Z,0.30
2022-12-04T02:05:09.632Z,0.30
2022-12-04T02:07:39.121Z,0.30
2022-12-04T02:10:08.946Z,0.20
2022-12-04T02:12:54.010Z,0.20
2022-12-04T02:15:34.879Z,0.30
2022-12-04T02:18:29.440Z,0.30
2022-12-04T02:21:13.665Z,0.30
2022-12-04T02:24:12.506Z,0.30
2022-12-04T02:26:51.521Z,0.40
2022-12-04T02:29:21.334Z,0.40
2022-12-04T02:32:20.126Z,0.40
2022-12-04T02:34:57.426Z,0.40
2022-12-04T02:37:31.808Z,0.30
2022-12-04T02:40:34.201Z,0.30
2022-12-04T02:43:12.382Z,0.30
2022-12-04T02:45:45.917Z,0.30
2022-12-04T02:48:18.515Z,0.30
2022-12-04T02:50:50.971Z,0.30
2022-12-04T02:53:26.673Z,0.30
2022-12-04T02:56:01.781Z,0.30
2022-12-04T02:58:54.127Z,0.30
2022-12-04T03:01:27.138Z,0.30
2022-12-04T03:04:07.256Z,0.30
2022-12-04T03:06:38.957Z,0.30
2022-12-04T03:09:17.458Z,0.30
2022-12-04T03:11:52.370Z,0.30
2022-12-04T03:14:29.522Z,0.30
2022-12-04T03:17:02.790Z,0.30
2022-12-04T03:19:38.827Z,0.30
2022-12-04T03:22:11.046Z,0.20
2022-12-04T03:24:39.098Z,0.10
2022-12-04T03:27:20.404Z,0.10
2022-12-04T03:29:53.822Z,0.10
2022-12-04T03:32:33.754Z,0.20
2022-12-04T03:35:06.629Z,0.20
2022-12-04T03:37:45.428Z,0.20
2022-12-04T03:40:37.746Z,0.20
2022-12-04T03:43:16.515Z,0.20
2022-12-04T03:46:09.953Z,0.20
2022-12-04T03:48:36.793Z,0.30
2022-12-04T03:51:16.734Z,0.30
2022-12-04T03:54:08.143Z,0.30
2022-12-04T03:56:44.260Z,0.30
2022-12-04T03:59:21.685Z,0.30
2022-12-04T04:01:50.811Z,0.20
2022-12-04T04:04:30.407Z,0.30
2022-12-04T04:07:04.784Z,0.30
2022-12-04T04:09:35.827Z,0.30
2022-12-04T04:12:15.153Z,0.30
2022-12-04T04:15:03.945Z,0.30
2022-12-04T04:17:53.301Z,0.20
2022-12-04T04:20:43.011Z,0.20
2022-12-04T04:23:31.060Z,0.20
2022-12-04T04:26:01.879Z,0.20
2022-12-04T04:28:40.615Z,0.20
2022-12-04T04:31:10.968Z,0.20
2022-12-04T04:33:47.604Z,0.20
2022-12-04T04:36:49.140Z,0.30
2022-12-04T04:39:41.953Z,0.30
2022-12-04T04:42:17.633Z,0.30
2022-12-04T04:45:16.258Z,0.30
2022-12-04T04:48:08.812Z,0.30
2022-12-04T04:50:36.049Z,0.30
2022-12-04T04:53:16.219Z,0.30
2022-12-04T04:55:43.713Z,0.30
2022-12-04T04:58:17.005Z,0.30
2022-12-04T05:01:11.711Z,0.30
2022-12-04T05:03:39.053Z,0.30
2022-12-04T05:06:06.687Z,0.30
2022-12-04T05:08:34.437Z,0.30
2022-12-04T05:11:01.651Z,0.30
2022-12-04T05:13:30.329Z,0.30
2022-12-04T05:16:07.334Z,0.40
2022-12-04T05:18:35.501Z,0.40
2022-12-04T05:21:09.910Z,0.40
2022-12-04T05:23:36.733Z,0.40
2022-12-04T05:26:05.591Z,0.40
2022-12-04T05:28:32.395Z,0.40
2022-12-04T05:31:02.746Z,0.30
2022-12-04T05:33:30.254Z,0.40
2022-12-04T05:36:11.161Z,0.30
2022-12-04T05:38:38.030Z,0.40
2022-12-04T05:41:06.326Z,0.30
2022-12-04T05:43:33.847Z,0.40
2022-12-04T05:46:05.500Z,0.30
2022-12-04T05:48:33.242Z,0.40
2022-12-04T05:51:00.169Z,0.40
2022-12-04T05:53:26.945Z,0.40
2022-12-04T05:56:02.217Z,0.40
2022-12-04T05:58:29.615Z,0.40
2022-12-04T06:00:56.646Z,0.40
2022-12-04T06:03:23.513Z,0.40
2022-12-04T06:05:50.387Z,0.40
2022-12-04T06:08:17.458Z,0.40
2022-12-04T06:10:44.357Z,0.40
2022-12-04T06:13:11.143Z,0.40
2022-12-04T06:15:39.825Z,0.40
2022-12-04T06:18:07.188Z,0.50
2022-12-04T06:20:34.660Z,0.50
2022-12-04T06:23:01.749Z,0.50
2022-12-04T06:25:28.629Z,0.40
2022-12-04T06:27:55.467Z,0.50
2022-12-04T06:30:23.331Z,0.50
2022-12-04T06:32:50.114Z,0.60
2022-12-04T06:35:16.993Z,0.60
2022-12-04T06:37:43.912Z,0.60
2022-12-04T06:40:11.115Z,0.60
2022-12-04T06:42:37.952Z,0.60
2022-12-04T06:45:05.467Z,0.60
2022-12-04T06:47:33.902Z,0.60
2022-12-04T06:50:00.793Z,0.60
2022-12-04T06:52:27.579Z,0.60
2022-12-04T06:54:54.578Z,0.60
2022-12-04T06:57:21.407Z,0.70
2022-12-04T06:59:48.204Z,0.60
2022-12-04T07:02:15.035Z,0.70
2022-12-04T07:04:41.876Z,0.70
2022-12-04T07:07:10.108Z,0.70
2022-12-04T07:09:37.150Z,0.70
2022-12-04T07:12:04.201Z,0.70
2022-12-04T07:14:31.055Z,0.70
2022-12-04T07:16:58.523Z,0.70
2022-12-04T07:19:25.433Z,0.70
2022-12-04T07:21:52.218Z,0.70
2022-12-04T07:24:19.143Z,0.70
2022-12-04T07:26:46.378Z,0.70
2022-12-04T07:29:13.649Z,0.80
2022-12-04T07:31:40.644Z,0.70
2022-12-04T07:34:07.880Z,0.80
2022-12-04T07:36:34.663Z,0.80
2022-12-04T07:39:01.490Z,0.80
2022-12-04T07:41:28.272Z,0.80
2022-12-04T07:43:55.178Z,0.80
2022-12-04T07:46:24.889Z,0.80
2022-12-04T07:48:51.908Z,0.80
2022-12-04T07:51:21.934Z,0.90
2022-12-04T07:53:49.949Z,0.90
2022-12-04T07:56:17.821Z,0.90
2022-12-04T07:58:44.633Z,0.90
2022-12-04T08:01:13.380Z,0.90
2022-12-04T08:03:47.056Z,0.90
2022-12-04T08:06:15.226Z,0.90
2022-12-04T08:08:42.020Z,0.90
2022-12-04T08:11:14.617Z,0.90
2022-12-04T08:13:41.843Z,0.90
2022-12-04T08:16:10.496Z,0.90
2022-12-04T08:18:37.576Z,1.00
2022-12-04T08:21:07.101Z,1.00
2022-12-04T08:23:34.701Z,1.00
2022-12-04T08:26:02.374Z,1.00
2022-12-04T08:28:29.382Z,1.00
2022-12-04T08:30:56.395Z,1.00
2022-12-04T08:33:23.298Z,1.00
2022-12-04T08:35:50.116Z,1.00
2022-12-04T08:38:16.938Z,1.10
2022-12-04T08:40:43.742Z,1.10
2022-12-04T08:43:10.604Z,1.10
2022-12-04T08:45:37.442Z,1.10
2022-12-04T08:48:04.433Z,1.10
2022-12-04T08:50:31.302Z,1.20
2022-12-04T08:52:58.202Z,1.20
2022-12-04T08:55:25.114Z,1.20
2022-12-04T08:57:53.277Z,1.30
2022-12-04T09:00:20.479Z,1.30
2022-12-04T09:02:49.830Z,1.30
2022-12-04T09:05:17.537Z,1.30
2022-12-04T09:07:44.364Z,1.30
2022-12-04T09:10:12.360Z,1.40
2022-12-04T09:12:39.354Z,1.40
2022-12-04T09:15:07.540Z,1.50
2022-12-04T09:17:36.192Z,1.50
2022-12-04T09:20:04.757Z,1.50
2022-12-04T09:22:57.749Z,1.50
2022-12-04T09:25:20.240Z,1.50
2022-12-04T09:27:47.112Z,1.60
2022-12-04T09:30:14.196Z,1.60
2022-12-04T09:32:40.980Z,1.50
2022-12-04T09:35:08.355Z,1.60
2022-12-04T09:37:36.729Z,1.60
2022-12-04T09:40:07.417Z,1.60
2022-12-04T09:42:49.746Z,1.70
2022-12-04T09:45:22.259Z,1.60
2022-12-04T09:47:52.177Z,1.70
2022-12-04T09:50:26.291Z,1.70
2022-12-04T09:53:02.564Z,1.70
2022-12-04T09:55:38.492Z,1.70
2022-12-04T09:58:10.342Z,1.80
2022-12-04T10:00:41.690Z,1.80
2022-12-04T10:03:15.981Z,1.80
2022-12-04T10:06:06.904Z,1.80
2022-12-04T10:08:43.154Z,1.80
2022-12-04T10:11:34.482Z,1.90
2022-12-04T10:14:26.231Z,1.90
2022-12-04T10:17:21.912Z,1.90
2022-12-04T10:20:07.593Z,1.90
2022-12-04T10:22:49.936Z,1.90
2022-12-04T10:25:26.566Z,1.80
2022-12-04T10:28:21.184Z,1.80
2022-12-04T10:30:50.628Z,1.90
2022-12-04T10:33:41.313Z,1.90
2022-12-04T10:36:15.890Z,1.90
2022-12-04T10:38:49.394Z,1.90
2022-12-04T10:41:59.709Z,1.90
2022-12-04T10:44:26.643Z,1.90
2022-12-04T10:47:03.330Z,2.00
2022-12-04T10:49:32.619Z,2.00
2022-12-04T10:51:59.409Z,2.00
2022-12-04T10:54:48.927Z,2.00
2022-12-04T10:57:16.728Z,1.90
2022-12-04T10:59:55.115Z,2.00
2022-12-04T11:02:31.088Z,2.10
2022-12-04T11:05:04.391Z,2.00
2022-12-04T11:07:34.965Z,2.10
2022-12-04T11:10:19.541Z,2.10
2022-12-04T11:12:57.506Z,2.10
2022-12-04T11:15:24.826Z,2.10
2022-12-04T11:17:55.507Z,2.10
2022-12-04T11:20:29.698Z,2.10
2022-12-04T11:22:59.002Z,2.10
2022-12-04T11:25:27.990Z,2.10
2022-12-04T11:28:01.474Z,2.20
2022-12-04T11:30:38.132Z,2.20
2022-12-04T11:33:14.645Z,2.20
2022-12-04T11:35:41.660Z,2.20
2022-12-04T11:38:16.753Z,2.20
2022-12-04T11:40:48.855Z,2.20
2022-12-04T11:43:17.732Z,2.20
2022-12-04T11:46:02.147Z,2.20
2022-12-04T11:48:41.352Z,2.20
2022-12-04T11:51:25.554Z,2.20
2022-12-04T11:54:09.308Z,2.20
2022-12-04T11:56:41.218Z,2.20
2022-12-04T11:59:55.783Z,2.20
2022-12-04T12:02:34.676Z,2.10
2022-12-04T12:05:20.357Z,2.20
2022-12-04T12:08:05.639Z,2.20
2022-12-04T12:10:59.491Z,2.10
2022-12-04T12:13:32.304Z,2.10
2022-12-04T12:16:23.305Z,2.10
2022-12-04T12:19:04.922Z,2.10
2022-12-04T12:22:09.262Z,2.10
2022-12-04T12:25:03.425Z,2.00
2022-12-04T12:27:57.992Z,2.00
2022-12-04T12:30:28.906Z,2.00
2022-12-04T12:32:58.858Z,2.00
2022-12-04T12:35:25.715Z,2.00
2022-12-04T12:38:02.358Z,2.00
2022-12-04T12:40:34.993Z,2.00
2022-12-04T12:43:19.670Z,2.00
2022-12-04T12:46:01.814Z,2.00
2022-12-04T12:48:58.292Z,2.00
2022-12-04T12:51:37.222Z,2.00
2022-12-04T12:54:39.107Z,2.00
2022-12-04T12:57:18.676Z,2.00
2022-12-04T12:59:54.185Z,2.00
2022-12-04T13:02:30.243Z,2.00
2022-12-04T13:05:10.203Z,2.00
2022-12-04T13:07:43.165Z,2.10
2022-12-04T13:10:28.340Z,2.00
2022-12-04T13:13:06.753Z,2.10
2022-12-04T13:15:45.565Z,2.10
2022-12-04T13:18:29.142Z,2.10
2022-12-04T13:21:00.830Z,2.10
2022-12-04T13:23:46.201Z,2.00
2022-12-04T13:26:47.787Z,2.00
2022-12-04T13:29:32.427Z,2.10
2022-12-04T13:32:31.319Z,2.00
2022-12-04T13:35:08.406Z,2.00
2022-12-04T13:37:56.660Z,2.00
2022-12-04T13:40:26.856Z,2.00
2022-12-04T13:43:04.758Z,2.00
2022-12-04T13:45:33.879Z,2.10
2022-12-04T13:48:03.384Z,2.10
2022-12-04T13:50:35.465Z,2.10
2022-12-04T13:53:02.840Z,2.10
2022-12-04T13:55:36.981Z,2.10
2022-12-04T13:58:27.974Z,2.10
2022-12-04T14:01:06.897Z,2.10
2022-12-04T14:03:49.358Z,2.10
2022-12-04T14:06:24.606Z,2.10
2022-12-04T14:08:57.970Z,2.10
2022-12-04T14:11:26.231Z,2.10
2022-12-04T14:13:56.712Z,2.10
2022-12-04T14:16:40.469Z,2.00
2022-12-04T14:19:08.402Z,2.00
2022-12-04T14:21:47.516Z,2.00
2022-12-04T14:24:38.403Z,2.00
2022-12-04T14:27:42.238Z,2.00
2022-12-04T14:30:18.099Z,2.00
2022-12-04T14:32:50.823Z,1.90
2022-12-04T14:35:21.338Z,1.90
2022-12-04T14:38:06.747Z,1.90
2022-12-04T14:40:45.757Z,1.90
2022-12-04T14:43:38.479Z,1.90
2022-12-04T14:46:30.672Z,1.90
2022-12-04T14:48:57.490Z,1.90
2022-12-04T14:51:43.456Z,1.90
2022-12-04T14:54:36.330Z,1.90
2022-12-04T14:57:15.280Z,2.00
2022-12-04T14:59:46.733Z,1.90
2022-12-04T15:02:34.667Z,1.90
2022-12-04T15:05:02.909Z,1.80
2022-12-04T15:07:31.802Z,1.80
2022-12-04T15:10:20.232Z,1.80
2022-12-04T15:12:52.128Z,1.70
2022-12-04T15:15:28.142Z,1.80
2022-12-04T15:18:15.847Z,1.70
2022-12-04T15:20:48.760Z,1.70
2022-12-04T15:23:41.455Z,1.70
2022-12-04T15:26:12.819Z,1.70
2022-12-04T15:28:48.901Z,1.70
2022-12-04T15:31:47.050Z,1.70
2022-12-04T15:34:17.326Z,1.60
2022-12-04T15:37:07.749Z,1.60
2022-12-04T15:39:38.049Z,1.60
2022-12-04T15:42:24.462Z,1.60
2022-12-04T15:45:03.045Z,1.60
2022-12-04T15:47:36.782Z,1.60
2022-12-04T15:50:15.811Z,1.60
2022-12-04T15:52:50.170Z,1.60
2022-12-04T15:55:18.925Z,1.60
2022-12-04T15:58:14.299Z,1.60
2022-12-04T16:00:42.912Z,1.60
2022-12-04T16:03:26.233Z,1.60
2022-12-04T16:06:26.967Z,1.60
2022-12-04T16:09:12.943Z,1.60
2022-12-04T16:11:41.069Z,1.60
2022-12-04T16:14:13.890Z,1.60
2022-12-04T16:16:43.771Z,1.50
2022-12-04T16:19:22.082Z,1.50
2022-12-04T16:21:49.272Z,1.60
2022-12-04T16:24:16.096Z,1.60
2022-12-04T16:26:42.883Z,1.60
2022-12-04T16:29:09.777Z,1.60
2022-12-04T16:31:38.137Z,1.50
2022-12-04T16:34:05.116Z,1.50
2022-12-04T16:36:32.180Z,1.50
2022-12-04T16:38:58.990Z,1.50
2022-12-04T16:41:25.775Z,1.50
2022-12-04T16:43:56.015Z,1.50
2022-12-04T16:46:25.255Z,1.60
2022-12-04T16:48:52.475Z,1.60
2022-12-04T16:51:27.033Z,1.60
2022-12-04T16:53:54.684Z,1.60
2022-12-04T16:56:22.358Z,1.60
2022-12-04T16:58:49.624Z,1.60
2022-12-04T17:01:21.902Z,1.60
2022-12-04T17:03:49.400Z,1.60
2022-12-04T17:06:16.703Z,1.60
2022-12-04T17:08:44.050Z,1.60
2022-12-04T17:11:15.964Z,1.70
2022-12-04T17:13:43.192Z,1.60
2022-12-04T17:16:14.581Z,1.60
2022-12-04T17:18:42.159Z,1.70
2022-12-04T17:21:11.346Z,1.60
2022-12-04T17:23:38.349Z,1.60
2022-12-04T17:26:07.927Z,1.60
2022-12-04T17:28:36.486Z,1.60
2022-12-04T17:31:06.145Z,1.60
2022-12-04T17:33:33.406Z,1.60
2022-12-04T17:36:00.427Z,1.70
2022-12-04T17:38:28.228Z,1.60
2022-12-04T17:41:02.341Z,1.60
2022-12-04T17:43:30.291Z,1.70
2022-12-04T17:45:57.923Z,1.70
2022-12-04T17:48:25.546Z,1.70
2022-12-04T17:51:08.111Z,1.60
2022-12-04T17:53:35.562Z,1.60
2022-12-04T17:56:08.442Z,1.60
2022-12-04T17:58:36.287Z,1.60
2022-12-04T18:01:06.034Z,1.60
2022-12-04T18:03:33.525Z,1.60
2022-12-04T18:06:01.482Z,1.60
2022-12-04T18:08:29.544Z,1.60
2022-12-04T18:10:57.304Z,1.60
2022-12-04T18:13:24.556Z,1.60
2022-12-04T18:15:51.395Z,1.60
2022-12-04T18:18:18.220Z,1.60
2022-12-04T18:20:45.038Z,1.60
2022-12-04T18:23:11.895Z,1.60
2022-12-04T18:25:38.737Z,1.60
2022-12-04T18:28:05.564Z,1.60
2022-12-04T18:30:34.662Z,1.60
2022-12-04T18:33:01.463Z,1.60
2022-12-04T18:35:28.337Z,1.60
2022-12-04T18:37:55.114Z,1.60
2022-12-04T18:40:21.963Z,1.60
2022-12-04T18:42:48.742Z,1.60
2022-12-04T18:45:15.686Z,1.60
2022-12-04T18:47:42.481Z,1.60
2022-12-04T18:50:09.678Z,1.60
2022-12-04T18:52:38.423Z,1.60
2022-12-04T18:55:05.597Z,1.60
2022-12-04T18:57:32.395Z,1.70
2022-12-04T18:59:59.401Z,1.70
2022-12-04T19:02:26.429Z,1.60
2022-12-04T19:04:53.539Z,1.60
2022-12-04T19:07:20.352Z,1.60
2022-12-04T19:10:10.311Z,1.60
2022-12-04T19:12:33.988Z,1.70
2022-12-04T19:15:00.817Z,1.60
2022-12-04T19:17:27.724Z,1.70
2022-12-04T19:19:54.932Z,1.60
2022-12-04T19:22:22.031Z,1.60
2022-12-04T19:24:48.917Z,1.70
2022-12-04T19:27:15.821Z,1.70
2022-12-04T19:29:43.532Z,1.60
2022-12-04T19:32:11.071Z,1.60
2022-12-04T19:34:38.106Z,1.60
2022-12-04T19:37:05.264Z,1.70
2022-12-04T19:39:32.136Z,1.60
2022-12-04T19:41:58.967Z,1.60
2022-12-04T19:44:48.038Z,1.60
2022-12-04T19:47:12.687Z,1.60
2022-12-04T19:49:39.562Z,1.60
2022-12-04T19:52:06.647Z,1.60
2022-12-04T19:54:33.582Z,1.50
2022-12-04T19:57:01.185Z,1.60
2022-12-04T19:59:33.097Z,1.50
2022-12-04T20:02:03.048Z,1.60
2022-12-04T20:04:29.902Z,1.60
2022-12-04T20:06:56.824Z,1.50
2022-12-04T20:09:25.207Z,1.50
2022-12-04T20:11:52.077Z,1.50
2022-12-04T20:14:19.005Z,1.50
2022-12-04T20:16:46.649Z,1.50
2022-12-04T20:19:15.561Z,1.50
2022-12-04T20:21:43.718Z,1.50
2022-12-04T20:24:13.777Z,1.50
2022-12-04T20:26:42.904Z,1.50
2022-12-04T20:29:13.222Z,1.50
2022-12-04T20:31:42.291Z,1.50
2022-12-04T20:34:13.693Z,1.50
2022-12-04T20:36:42.936Z,1.50
2022-12-04T20:39:11.306Z,1.50
2022-12-04T20:41:39.931Z,1.50
2022-12-04T20:44:09.501Z,1.50
2022-12-04T20:46:39.135Z,1.40
2022-12-04T20:49:08.628Z,1.40
2022-12-04T20:51:38.232Z,1.40
2022-12-04T20:54:06.179Z,1.40
2022-12-04T20:56:35.600Z,1.40
2022-12-04T20:59:05.958Z,1.40
2022-12-04T21:01:33.490Z,1.40
2022-12-04T21:04:01.668Z,1.30
2022-12-04T21:06:35.990Z,1.30
2022-12-04T21:09:10.239Z,1.30
2022-12-04T21:11:42.580Z,1.30
2022-12-04T21:14:38.983Z,1.40
2022-12-04T21:17:07.529Z,1.30
2022-12-04T21:19:34.394Z,1.40
2022-12-04T21:22:01.388Z,1.30
2022-12-04T21:24:30.305Z,1.40
2022-12-04T21:26:57.117Z,1.30
2022-12-04T21:29:24.194Z,1.40
2022-12-04T21:31:51.006Z,1.30
2022-12-04T21:34:18.161Z,1.30
2022-12-04T21:36:46.442Z,1.30
2022-12-04T21:39:14.453Z,1.30
2022-12-04T21:42:00.286Z,1.30
2022-12-04T21:44:27.522Z,1.30
2022-12-04T21:46:54.402Z,1.30
2022-12-04T21:49:21.259Z,1.20
2022-12-04T21:51:57.371Z,1.20
2022-12-04T21:54:25.876Z,1.20
2022-12-04T21:56:52.696Z,1.20
2022-12-04T21:59:19.674Z,1.30
2022-12-04T22:01:46.534Z,1.30
2022-12-04T22:04:13.412Z,1.30
2022-12-04T22:06:40.258Z,1.20
2022-12-04T22:09:09.663Z,1.30
2022-12-04T22:11:37.158Z,1.30
2022-12-04T22:14:04.815Z,1.30
2022-12-04T22:16:34.622Z,1.20
2022-12-04T22:19:04.276Z,1.20
2022-12-04T22:21:31.085Z,1.20
2022-12-04T22:23:59.582Z,1.10
2022-12-04T22:26:27.813Z,1.20
2022-12-04T22:28:55.263Z,1.20
2022-12-04T22:31:24.684Z,1.20
2022-12-04T22:33:53.538Z,1.20
2022-12-04T22:36:23.449Z,1.10
2022-12-04T22:39:09.918Z,1.10
2022-12-04T22:41:37.886Z,1.10
2022-12-04T22:44:05.724Z,1.20
2022-12-04T22:46:32.916Z,1.20
2022-12-04T22:49:00.461Z,1.10
2022-12-04T22:51:27.730Z,1.20
2022-12-04T22:53:57.181Z,1.10
2022-12-04T22:56:25.340Z,1.20
2022-12-04T22:58:53.601Z,1.20
2022-12-04T23:01:29.063Z,1.10
2022-12-04T23:03:56.568Z,1.10
2022-12-04T23:06:26.475Z,1.10
2022-12-04T23:08:58.942Z,1.10
2022-12-04T23:11:27.018Z,1.10
2022-12-04T23:13:56.144Z,1.10
2022-12-04T23:16:24.325Z,1.20
2022-12-04T23:18:51.317Z,1.20
2022-12-04T23:21:19.493Z,1.10
2022-12-04T23:23:47.633Z,1.10
2022-12-04T23:26:17.258Z,1.10
2022-12-04T23:28:44.727Z,1.10
2022-12-04T23:31:12.268Z,1.10
2022-12-04T23:33:40.246Z,1.10
2022-12-04T23:36:09.441Z,1.10
2022-12-04T23:38:37.977Z,1.00
2022-12-04T23:41:15.240Z,1.10
2022-12-04T23:43:42.885Z,1.10
2022-12-04T23:46:11.905Z,1.00
2022-12-04T23:48:43.818Z,1.10
2022-12-04T23:51:12.408Z,1.10
2022-12-04T23:53:39.323Z,1.10
2022-12-04T23:56:15.479Z,1.00
2022-12-04T23:58:43.461Z,1.10
